Time;durP1;ratioP1;P1;durP2;ratioP2;P2;SDS_P1;SDS_P2;PMS_P1;PMS_P2;Temp;Humidity;BMP_temperature;BMP_pressure;BME280_temperature;BME280_humidity;BME280_pressure;Samples;Min_cycle;Max_cycle;Signal;HPM_P1;HPM_P2
2021/12/12 00:02:09;;;;;;;6.22;4.78;;;;;;;7.37;100.00;93621.25;5101238;28;20212;-70
2021/12/12 00:04:38;;;;;;;4.90;3.75;;;;;;;7.12;100.00;93616.47;5100480;28;20208;-71
2021/12/12 00:07:09;;;;;;;6.43;3.97;;;;;;;7.25;100.00;93622.59;5101180;28;20236;-70
2021/12/12 00:09:39;;;;;;;5.13;4.03;;;;;;;7.09;100.00;93645.19;5100070;28;20205;-69
2021/12/12 00:12:10;;;;;;;4.05;3.60;;;;;;;6.97;100.00;93655.00;5101429;28;20355;-70
2021/12/12 00:14:38;;;;;;;5.75;4.18;;;;;;;7.01;100.00;93679.22;5100214;28;21117;-70
2021/12/12 00:17:07;;;;;;;4.68;4.13;;;;;;;6.92;100.00;93682.97;5101603;27;20197;-70
2021/12/12 00:19:35;;;;;;;3.80;3.45;;;;;;;6.97;100.00;93677.72;5101486;28;20197;-70
2021/12/12 00:22:07;;;;;;;3.67;3.38;;;;;;;7.11;100.00;93685.56;5100409;28;20205;-70
2021/12/12 00:24:34;;;;;;;6.80;4.30;;;;;;;7.34;100.00;93682.03;5100181;28;21129;-70
2021/12/12 00:27:02;;;;;;;4.95;3.78;;;;;;;7.22;100.00;93683.38;5101039;28;20264;-70
2021/12/12 00:29:29;;;;;;;3.55;3.20;;;;;;;7.21;100.00;93689.31;5100486;28;20971;-70
2021/12/12 00:32:10;;;;;;;4.53;3.22;;;;;;;7.18;100.00;93701.28;5099507;28;20274;-71
2021/12/12 00:34:40;;;;;;;3.83;3.38;;;;;;;7.24;100.00;93711.91;5100111;28;20292;-70
2021/12/12 00:37:10;;;;;;;3.25;2.95;;;;;;;7.21;100.00;93706.16;5101415;28;20613;-70
2021/12/12 00:39:40;;;;;;;4.85;3.30;;;;;;;6.97;100.00;93718.13;5100513;28;21001;-70
2021/12/12 00:42:09;;;;;;;2.58;2.33;;;;;;;7.04;100.00;93724.56;5100019;28;20201;-72
2021/12/12 00:44:38;;;;;;;2.95;1.13;;;;;;;7.16;100.00;93734.19;5100883;28;20201;-70
2021/12/12 00:47:08;;;;;;;0.65;0.65;;;;;;;7.26;100.00;93749.75;5099254;28;20689;-71
2021/12/12 00:49:37;;;;;;;0.60;0.60;;;;;;;7.35;100.00;93747.69;5099169;28;20205;-70
2021/12/12 00:52:05;;;;;;;184.20;86.75;;;;;;;7.35;100.00;93742.63;5100053;28;20197;-70
2021/12/12 00:54:34;;;;;;;4.82;4.30;;;;;;;7.59;100.00;93767.75;5099338;28;20205;-70
2021/12/12 00:57:04;;;;;;;0.82;0.82;;;;;;;7.74;100.00;93777.19;5099725;28;20204;-70
2021/12/12 00:59:31;;;;;;;0.68;0.68;;;;;;;7.65;100.00;93772.53;5098197;28;20219;-71
2021/12/12 01:01:59;;;;;;;0.65;0.57;;;;;;;7.66;100.00;93790.19;5099928;28;20193;-69
2021/12/12 01:04:30;;;;;;;0.70;0.70;;;;;;;7.55;100.00;93787.28;5100064;28;20660;-70
2021/12/12 01:06:59;;;;;;;0.80;0.80;;;;;;;7.54;100.00;93784.81;5100697;28;20216;-70
2021/12/12 01:09:28;;;;;;;0.50;0.50;;;;;;;7.63;100.00;93779.38;5100533;28;20193;-69
2021/12/12 01:11:59;;;;;;;0.82;0.50;;;;;;;7.70;100.00;93780.72;5099374;28;20224;-69
2021/12/12 01:14:30;;;;;;;0.65;0.65;;;;;;;7.81;100.00;93779.41;5100793;28;20278;-70
2021/12/12 01:17:00;;;;;;;4.93;3.65;;;;;;;7.67;98.57;93773.31;5099618;28;20941;-69
2021/12/12 01:19:31;;;;;;;0.75;0.75;;;;;;;7.63;100.00;93786.97;5100336;28;20203;-69
2021/12/12 01:22:01;;;;;;;0.68;0.50;;;;;;;7.61;100.00;93791.25;5100346;28;20212;-69
2021/12/12 01:24:33;;;;;;;0.40;0.40;;;;;;;7.59;98.97;93780.38;5099858;28;20258;-69
2021/12/12 01:27:05;;;;;;;0.55;0.55;;;;;;;7.75;98.55;93773.78;5100533;28;20705;-70
2021/12/12 01:29:32;;;;;;;0.47;0.43;;;;;;;7.72;97.83;93771.38;5099333;28;20714;-70
2021/12/12 01:32:02;;;;;;;0.50;0.50;;;;;;;7.74;98.12;93765.38;5099508;28;20949;-68
2021/12/12 01:34:31;;;;;;;0.40;0.38;;;;;;;7.81;96.83;93766.75;5100716;28;21164;-70
2021/12/12 01:37:22;;;;;;;0.38;0.38;;;;;;;7.66;96.69;93761.56;5099421;28;20239;-69
2021/12/12 01:39:49;;;;;;;0.40;0.40;;;;;;;7.71;94.52;93757.09;5099789;28;20776;-69
2021/12/12 01:42:24;;;;;;;0.70;0.70;;;;;;;7.60;94.66;93754.22;5099146;28;20282;-70
2021/12/12 01:44:57;;;;;;;0.47;0.22;;;;;;;7.58;93.35;93761.03;5100288;28;20204;-69
2021/12/12 01:47:28;;;;;;;2.67;0.60;;;;;;;7.64;93.67;93765.84;5099635;28;20228;-70
2021/12/12 01:49:59;;;;;;;0.40;0.40;;;;;;;7.62;93.11;93767.63;5100118;28;20727;-69
2021/12/12 01:52:29;;;;;;;0.30;0.30;;;;;;;7.58;93.27;93776.22;5099742;28;20228;-69
2021/12/12 01:55:01;;;;;;;0.50;0.50;;;;;;;7.64;92.84;93783.53;5099983;28;20202;-71
2021/12/12 01:57:33;;;;;;;0.55;0.50;;;;;;;7.58;91.67;93791.38;5099297;28;21125;-70
2021/12/12 02:00:05;;;;;;;0.35;0.35;;;;;;;7.68;91.02;93797.66;5099736;28;20254;-70
2021/12/12 02:02:34;;;;;;;0.30;0.30;;;;;;;7.76;90.25;93801.53;5099493;28;21164;-69
2021/12/12 02:05:09;;;;;;;0.40;0.40;;;;;;;7.72;90.91;93814.38;5099084;28;20288;-69
2021/12/12 02:07:41;;;;;;;0.40;0.40;;;;;;;7.70;91.63;93821.19;5098825;28;21234;-69
2021/12/12 02:10:12;;;;;;;0.40;0.40;;;;;;;7.58;91.30;93816.66;5099534;28;20205;-69
2021/12/12 02:12:41;;;;;;;0.30;0.30;;;;;;;7.62;91.78;93816.47;5097398;28;20205;-72
2021/12/12 02:15:09;;;;;;;0.50;0.50;;;;;;;7.55;90.63;93814.25;5100280;28;20235;-71
2021/12/12 02:17:41;;;;;;;0.50;0.50;;;;;;;7.51;91.30;93811.03;5098329;28;20684;-70
2021/12/12 02:20:18;;;;;;;0.50;0.50;;;;;;;7.58;91.04;93796.44;5099669;28;20205;-71
2021/12/12 02:23:05;;;;;;;0.40;0.40;;;;;;;7.55;90.43;93796.56;5099845;28;20232;-71
2021/12/12 02:36:38;;;;;;;0.40;0.40;;;;;;;7.73;89.25;93818.53;5098346;28;20254;-72
2021/12/12 02:39:15;;;;;;;0.38;0.38;;;;;;;7.89;88.61;93831.38;5099536;27;20201;-69
2021/12/12 02:41:44;;;;;;;2.03;0.50;;;;;;;7.98;86.03;93824.19;5097111;28;20204;-70
2021/12/12 02:44:11;;;;;;;0.65;0.47;;;;;;;7.90;86.46;93828.78;5097832;28;20201;-70
2021/12/12 02:46:40;;;;;;;0.43;0.40;;;;;;;7.94;85.86;93832.78;5099105;28;20224;-69
2021/12/12 02:49:24;;;;;;;2.97;0.60;;;;;;;8.04;86.06;93846.69;5099660;28;20296;-71
2021/12/12 02:51:53;;;;;;;2.22;0.43;;;;;;;8.08;85.06;93847.38;5097914;28;20241;-69
2021/12/12 02:54:23;;;;;;;1.08;0.68;;;;;;;8.00;86.42;93832.53;5099714;28;20201;-69
2021/12/12 02:56:50;;;;;;;1.17;0.98;;;;;;;7.80;87.68;93847.75;5101144;28;20800;-71
2021/12/12 02:59:23;;;;;;;0.65;0.65;;;;;;;7.73;88.05;93854.75;5102713;27;20205;-70
2021/12/12 03:01:58;;;;;;;1.20;0.77;;;;;;;7.70;88.19;93843.94;5103099;27;20193;-69
2021/12/12 03:04:27;;;;;;;0.70;0.60;;;;;;;7.57;88.46;93850.41;5102303;28;20651;-69
2021/12/12 03:06:55;;;;;;;0.70;0.70;;;;;;;7.51;90.20;93847.25;5101618;28;20232;-69
2021/12/12 03:09:27;;;;;;;1.42;1.35;;;;;;;7.50;89.51;93850.66;5101607;28;20205;-70
2021/12/12 03:11:58;;;;;;;0.50;0.50;;;;;;;7.56;89.29;93869.00;5102375;28;20216;-68
2021/12/12 03:14:31;;;;;;;1.58;0.40;;;;;;;7.44;89.35;93872.81;5101691;28;20701;-69
2021/12/12 03:17:00;;;;;;;1.83;0.77;;;;;;;7.31;89.89;93871.69;5101817;28;20205;-70
2021/12/12 03:19:28;;;;;;;0.85;0.85;;;;;;;7.20;89.81;93884.72;5102344;28;20286;-69
2021/12/12 03:21:55;;;;;;;2.15;0.90;;;;;;;6.90;89.85;93888.47;5101888;28;20671;-69
2021/12/12 03:24:27;;;;;;;0.90;0.90;;;;;;;6.59;91.02;93899.72;5102610;28;20201;-70
2021/12/12 03:26:57;;;;;;;1.25;1.23;;;;;;;6.49;91.22;93894.16;5101308;28;20236;-69
2021/12/12 03:29:25;;;;;;;1.00;1.00;;;;;;;6.26;93.40;93905.97;5101944;28;20620;-70
2021/12/12 03:31:57;;;;;;;1.23;1.10;;;;;;;6.03;94.19;93894.16;5100973;28;20257;-70
2021/12/12 03:34:28;;;;;;;1.00;1.00;;;;;;;5.87;95.40;93908.97;5101802;28;20276;-70
2021/12/12 03:36:55;;;;;;;1.02;1.02;;;;;;;5.81;96.11;93906.66;5101607;28;20282;-71
2021/12/12 03:39:27;;;;;;;1.77;1.67;;;;;;;5.73;96.14;93919.50;5101281;28;20229;-72
2021/12/12 03:41:57;;;;;;;2.00;1.90;;;;;;;5.69;96.56;93924.72;5101424;28;20759;-71
2021/12/12 03:44:27;;;;;;;1.55;1.45;;;;;;;5.61;96.47;93929.16;5101978;28;20208;-71
2021/12/12 03:46:58;;;;;;;1.85;1.75;;;;;;;5.57;97.02;93945.25;5101077;28;20224;-71
2021/12/12 03:49:25;;;;;;;1.40;1.40;;;;;;;5.56;96.25;93951.16;5100812;28;20249;-70
2021/12/12 03:51:52;;;;;;;1.30;1.20;;;;;;;5.66;95.53;93944.97;5101704;28;20205;-71
2021/12/12 03:54:20;;;;;;;1.08;1.08;;;;;;;5.57;95.30;93957.84;5100806;28;20228;-71
2021/12/12 03:56:49;;;;;;;0.85;0.85;;;;;;;5.48;94.59;93967.34;5101266;28;20687;-71
2021/12/12 03:59:16;;;;;;;1.15;1.05;;;;;;;5.63;94.75;93966.06;5101729;28;20680;-70
2021/12/12 04:01:47;;;;;;;1.20;1.20;;;;;;;5.71;94.29;93968.31;5101588;28;20238;-69
2021/12/12 04:04:19;;;;;;;0.80;0.80;;;;;;;5.47;94.42;93970.75;5100404;28;20205;-70
2021/12/12 04:06:47;;;;;;;2.15;1.17;;;;;;;5.52;95.64;93967.25;5100674;28;20205;-69
2021/12/12 04:09:15;;;;;;;0.80;0.80;;;;;;;5.47;95.03;93975.78;5101736;28;20201;-71
2021/12/12 04:11:49;;;;;;;0.98;0.88;;;;;;;5.61;94.58;93980.41;5100287;28;20283;-70
2021/12/12 04:14:18;;;;;;;0.80;0.80;;;;;;;5.61;94.73;93980.41;5100124;28;20765;-70
2021/12/12 04:16:48;;;;;;;0.90;0.73;;;;;;;5.57;93.67;93993.13;5101370;28;20205;-70
2021/12/12 04:19:15;;;;;;;0.80;0.80;;;;;;;5.47;93.62;94011.06;5101617;28;20209;-70
2021/12/12 04:21:43;;;;;;;0.60;0.60;;;;;;;5.59;92.99;94009.03;5100740;28;20253;-69
2021/12/12 04:24:11;;;;;;;0.70;0.70;;;;;;;5.64;92.06;94014.75;5100341;28;20289;-69
2021/12/12 04:26:40;;;;;;;0.70;0.70;;;;;;;5.36;92.78;94010.56;5100282;28;20663;-69
2021/12/12 04:29:10;;;;;;;0.73;0.73;;;;;;;5.31;93.19;94030.03;5100692;28;20218;-69
2021/12/12 04:31:42;;;;;;;0.93;0.93;;;;;;;5.23;92.38;94044.53;5101561;28;20687;-70
2021/12/12 04:34:09;;;;;;;0.80;0.80;;;;;;;5.13;93.03;94048.22;5100100;28;20208;-70
2021/12/12 04:36:38;;;;;;;0.80;0.80;;;;;;;5.29;91.27;94041.84;5099669;28;20626;-69
2021/12/12 04:39:09;;;;;;;0.80;0.80;;;;;;;5.13;92.47;94050.72;5098766;28;20209;-69
2021/12/12 04:41:37;;;;;;;0.60;0.60;;;;;;;4.97;91.65;94057.03;5100645;28;20193;-68
2021/12/12 04:44:05;;;;;;;0.70;0.70;;;;;;;4.91;91.99;94065.63;5100741;28;20254;-69
2021/12/12 04:49:54;;;;;;;0.70;0.70;;;;;;;5.02;92.00;94077.88;5099725;28;20265;-70
2021/12/12 04:52:15;;;;;;;0.80;0.70;;;;;;;4.92;91.43;94086.59;5100444;28;20212;-69
2021/12/12 04:54:48;;;;;;;0.50;0.50;;;;;;;4.88;91.11;94092.56;5100793;28;20511;-70
2021/12/12 04:57:21;;;;;;;1.00;0.73;;;;;;;4.74;90.34;94098.78;5100428;28;20572;-69
2021/12/12 04:59:52;;;;;;;0.60;0.60;;;;;;;4.77;90.48;94093.66;5100497;28;20250;-68
2021/12/12 05:02:25;;;;;;;0.77;0.77;;;;;;;4.67;91.03;94089.75;5099833;28;20853;-67
2021/12/12 05:05:06;;;;;;;1.00;1.00;;;;;;;4.55;91.25;94096.78;5100378;28;21240;-69
2021/12/12 05:07:42;;;;;;;0.60;0.60;;;;;;;4.56;90.94;94100.97;5100317;28;20224;-70
2021/12/12 05:10:13;;;;;;;0.90;0.90;;;;;;;4.61;90.98;94111.72;5100550;28;20212;-70
2021/12/12 05:12:47;;;;;;;0.80;0.80;;;;;;;4.49;91.24;94115.38;5110676;28;20212;-70
2021/12/12 05:15:19;;;;;;;0.80;0.80;;;;;;;4.43;91.26;94123.09;5111089;28;20253;-69
2021/12/12 05:17:50;;;;;;;0.80;0.80;;;;;;;4.31;91.74;94128.41;5110750;28;20208;-70
2021/12/12 05:20:24;;;;;;;0.70;0.70;;;;;;;4.39;91.92;94131.59;5111160;28;20689;-70
2021/12/12 05:22:55;;;;;;;1.02;1.02;;;;;;;4.28;91.78;94134.34;5111162;28;20188;-69
2021/12/12 05:25:26;;;;;;;0.82;0.82;;;;;;;4.15;92.70;94147.25;5110982;28;20204;-71
2021/12/12 05:27:56;;;;;;;0.60;0.60;;;;;;;4.21;91.84;94149.59;5111019;28;20281;-68
2021/12/12 05:30:25;;;;;;;1.63;1.53;;;;;;;4.25;91.77;94147.00;5110788;28;20197;-70
2021/12/12 05:32:54;;;;;;;0.77;0.73;;;;;;;4.23;92.15;94147.88;5110676;28;20185;-68
2021/12/12 05:35:26;;;;;;;0.85;0.85;;;;;;;4.29;91.50;94147.75;5110854;28;20250;-69
2021/12/12 05:37:55;;;;;;;0.97;0.70;;;;;;;4.15;90.91;94157.31;5110944;28;20247;-70
2021/12/12 05:40:26;;;;;;;0.90;0.90;;;;;;;4.20;91.88;94160.56;5110659;28;20228;-71
2021/12/12 05:42:54;;;;;;;0.98;0.98;;;;;;;4.29;90.96;94153.59;5110814;28;20215;-71
2021/12/12 05:45:22;;;;;;;0.90;0.90;;;;;;;4.20;91.36;94158.03;5110609;28;20638;-70
2021/12/12 05:47:49;;;;;;;0.80;0.80;;;;;;;4.01;92.04;94155.94;5110474;28;20216;-69
2021/12/12 05:50:18;;;;;;;0.60;0.60;;;;;;;3.99;91.53;94172.72;5110421;28;20185;-67
2021/12/12 05:52:47;;;;;;;0.80;0.80;;;;;;;4.01;90.68;94188.63;5111039;28;20192;-70
2021/12/12 05:55:17;;;;;;;1.10;1.00;;;;;;;4.07;90.52;94203.56;5110462;28;20245;-69
2021/12/12 05:57:53;;;;;;;0.80;0.80;;;;;;;4.13;90.00;94221.91;5110580;28;20197;-70
2021/12/12 06:00:22;;;;;;;1.00;1.00;;;;;;;4.18;89.51;94235.19;5110685;28;20659;-68
2021/12/12 06:02:49;;;;;;;0.60;0.60;;;;;;;4.16;90.00;94226.84;5110681;28;20299;-69
2021/12/12 06:05:16;;;;;;;0.80;0.80;;;;;;;4.08;89.26;94237.91;5110529;28;20282;-70
2021/12/12 06:07:43;;;;;;;0.73;0.73;;;;;;;4.17;89.99;94243.59;5110435;28;20221;-70
2021/12/12 06:10:16;;;;;;;1.30;0.95;;;;;;;4.34;89.96;94244.03;5109467;28;20641;-71
2021/12/12 06:12:44;;;;;;;1.00;1.00;;;;;;;4.35;89.41;94246.53;5100182;28;20201;-70
2021/12/12 06:15:14;;;;;;;1.45;1.35;;;;;;;4.53;89.72;94247.78;5099120;28;20205;-74
2021/12/12 06:17:42;;;;;;;2.35;1.10;;;;;;;4.69;86.66;94236.50;5100358;28;20250;-69
2021/12/12 06:20:11;;;;;;;1.27;1.17;;;;;;;4.31;87.83;94244.94;5099293;28;20209;-69
2021/12/12 06:22:38;;;;;;;1.30;1.20;;;;;;;4.18;88.80;94238.53;5099714;28;20225;-71
